Time;durP1;ratioP1;P1;durP2;ratioP2;P2;SDS_P1;SDS_P2;PMS_P1;PMS_P2;Temp;Humidity;BMP_temperature;BMP_pressure;BME280_temperature;BME280_humidity;BME280_pressure;Samples;Min_cycle;Max_cycle;Signal;HPM_P1;HPM_P2
2021/09/09 00:00:30;;;;;;;24.93;5.27;;;;;;;;;;4893709;28;20238;-78
2021/09/09 00:02:54;;;;;;;5.13;1.30;;;9.30;37.80;;;;;;4881620;28;20237;-76
2021/09/09 00:05:17;;;;;;;8.43;2.03;;;;;;;;;;4878380;28;20695;-75
2021/09/09 00:07:41;;;;;;;4.63;1.27;;;;;;;;;;4887811;28;20188;-77
2021/09/09 00:10:05;;;;;;;4.40;1.27;;;9.30;36.60;;;;;;4895506;28;20290;-78
2021/09/09 00:12:28;;;;;;;8.47;2.03;;;;;;;;;;4891862;28;20575;-78
2021/09/09 00:14:52;;;;;;;5.10;1.33;;;;;;;;;;4889645;28;20189;-75
2021/09/09 00:17:16;;;;;;;8.33;1.93;;;;;;;;;;4881707;28;20181;-78
2021/09/09 00:19:39;;;;;;;4.77;1.30;;;9.30;37.30;;;;;;4891968;28;20185;-76
2021/09/09 00:22:03;;;;;;;6.77;1.70;;;;;;;;;;4882408;28;20250;-88
2021/09/09 00:24:27;;;;;;;6.40;1.73;;;;;;;;;;4899246;28;20212;-88
2021/09/09 00:26:49;;;;;;;3.73;1.00;;;;;;;;;;4883329;28;20185;-86
2021/09/09 00:29:13;;;;;;;3.40;1.00;;;;;;;;;;4886984;28;20585;-88
2021/09/09 00:31:36;;;;;;;4.13;1.27;;;;;;;;;;4896355;28;20185;-87
2021/09/09 00:33:59;;;;;;;3.57;1.00;;;;;;;;;;4896676;28;20181;-87
2021/09/09 00:36:24;;;;;;;4.77;1.37;;;9.00;38.30;;;;;;4895852;28;20238;-89
2021/09/09 00:38:47;;;;;;;4.17;1.17;;;;;;;;;;4888421;28;20185;-89
2021/09/09 00:41:10;;;;;;;5.90;1.53;;;;;;;;;;4877961;28;20208;-88
2021/09/09 00:43:32;;;;;;;5.27;1.50;;;;;;;;;;4885139;28;20800;-89
2021/09/09 00:45:56;;;;;;;1.70;0.70;;;8.80;38.90;;;;;;4895371;28;20192;-88
2021/09/09 00:48:19;;;;;;;5.50;1.40;;;;;;;;;;4886687;28;20188;-86
2021/09/09 00:50:42;;;;;;;3.73;1.10;;;;;;;;;;4893039;28;20666;-87
2021/09/09 00:53:08;;;;;;;2.90;0.90;;;8.80;37.00;;;;;;4886946;28;20259;-85
2021/09/09 00:55:31;;;;;;;3.40;1.10;;;;;;;;;;4885130;28;20215;-88
2021/09/09 00:57:53;;;;;;;4.07;1.13;;;;;;;;;;4885911;28;20247;-87
2021/09/09 01:00:17;;;;;;;4.97;1.33;;;8.80;35.50;;;;;;4888468;28;20219;-89
2021/09/09 01:02:39;;;;;;;2.43;0.70;;;;;;;;;;4873866;28;20271;-90
2021/09/09 01:05:02;;;;;;;5.90;1.50;;;;;;;;;;4877016;28;20189;-88
2021/09/09 01:07:26;;;;;;;5.47;1.33;;;8.70;36.60;;;;;;4882017;28;20188;-89
2021/09/09 01:09:50;;;;;;;2.97;0.83;;;8.60;37.20;;;;;;4895812;28;20220;-81
2021/09/09 01:12:12;;;;;;;3.90;1.10;;;;;;;;;;4895349;28;20184;-86
2021/09/09 01:14:35;;;;;;;2.83;0.80;;;;;;;;;;4883274;28;20188;-88
2021/09/09 01:16:58;;;;;;;3.87;1.07;;;;;;;;;;4895122;28;20654;-87
2021/09/09 01:19:21;;;;;;;6.43;1.73;;;;;;;;;;4885519;28;20185;-88
2021/09/09 01:21:44;;;;;;;3.97;1.13;;;;;;;;;;4887362;28;20597;-88
2021/09/09 01:24:12;;;;;;;2.27;0.77;;;8.50;35.00;;;;;;4894901;28;20220;-87
2021/09/09 01:26:51;;;;;;;4.63;1.30;;;8.60;34.40;;;;;;4886190;28;20239;-87
2021/09/09 01:29:14;;;;;;;5.33;1.47;;;;;;;;;;4894864;28;20207;-87
2021/09/09 01:31:36;;;;;;;2.80;0.80;;;;;;;;;;4891618;28;20606;-79
2021/09/09 01:33:59;;;;;;;4.20;1.13;;;;;;;;;;4883165;28;20194;-88
2021/09/09 01:36:22;;;;;;;7.20;1.93;;;;;;;;;;4876749;28;20247;-86
2021/09/09 01:38:45;;;;;;;2.47;0.77;;;;;;;;;;4892166;28;20210;-87
2021/09/09 01:41:08;;;;;;;1.90;0.73;;;8.40;35.80;;;;;;4888980;28;20190;-90
2021/09/09 01:43:31;;;;;;;5.60;1.40;;;;;;;;;;4875941;28;20275;-90
2021/09/09 01:45:54;;;;;;;3.63;0.97;;;;;;;;;;4911508;28;20246;-88
2021/09/09 01:48:17;;;;;;;8.03;1.87;;;;;;;;;;4882949;28;20524;-85
2021/09/09 01:50:39;;;;;;;3.93;1.03;;;;;;;;;;4857518;28;20198;-88
2021/09/09 01:53:02;;;;;;;4.80;1.30;;;;;;;;;;4882513;28;20238;-88
2021/09/09 01:55:25;;;;;;;5.90;1.50;;;;;;;;;;4879191;28;20193;-84
2021/09/09 01:57:49;;;;;;;4.63;1.17;;;8.30;35.60;;;;;;4876802;28;20205;-78
2021/09/09 02:00:13;;;;;;;7.37;1.63;;;8.30;35.50;;;;;;4888183;28;20185;-84
2021/09/09 02:02:35;;;;;;;3.23;0.93;;;;;;;;;;4874203;28;20290;-80
2021/09/09 02:04:58;;;;;;;3.67;1.10;;;;;;;;;;4892404;28;20284;-89
2021/09/09 02:07:21;;;;;;;5.80;1.37;;;;;;;;;;4879487;28;20708;-91
2021/09/09 02:09:43;;;;;;;4.50;1.13;;;;;;;;;;4895578;28;20232;-81
2021/09/09 02:12:06;;;;;;;3.17;0.80;;;;;;;;;;4882127;28;20193;-86
2021/09/09 02:14:30;;;;;;;9.03;1.83;;;8.20;34.50;;;;;;4880439;28;20274;-88
2021/09/09 02:16:53;;;;;;;3.33;0.90;;;;;;;;;;4882433;28;20670;-87
2021/09/09 02:19:16;;;;;;;12.77;2.50;;;;;;;;;;4889630;28;20254;-88
2021/09/09 02:21:41;;;;;;;4.27;1.10;;;;;;;;;;4879470;28;20181;-88
2021/09/09 02:24:03;;;;;;;6.33;1.47;;;;;;;;;;4878445;28;20205;-76
2021/09/09 02:26:26;;;;;;;8.00;1.83;;;;;;;;;;4890142;28;20201;-75
2021/09/09 02:28:49;;;;;;;3.40;0.90;;;;;;;;;;4878401;28;20219;-83
2021/09/09 02:31:13;;;;;;;6.33;1.40;;;8.10;34.40;;;;;;4885815;28;20222;-76
2021/09/09 02:33:35;;;;;;;8.57;1.97;;;;;;;;;;4897159;28;20188;-76
2021/09/09 02:35:58;;;;;;;5.87;1.40;;;;;;;;;;4889956;28;20186;-76
2021/09/09 02:38:21;;;;;;;10.53;2.27;;;;;;;;;;4858873;28;20190;-76
2021/09/09 02:40:44;;;;;;;9.03;1.90;;;;;;;;;;4870493;28;20192;-74
2021/09/09 02:43:07;;;;;;;4.40;1.10;;;;;;;;;;4888523;28;20646;-76
2021/09/09 02:45:29;;;;;;;5.33;1.27;;;;;;;;;;4882059;28;20216;-76
2021/09/09 02:47:53;;;;;;;6.50;1.47;;;7.90;35.70;;;;;;4897439;28;20181;-78
2021/09/09 02:50:16;;;;;;;9.03;1.80;;;;;;;;;;4895215;28;20185;-76
2021/09/09 02:52:39;;;;;;;5.50;1.27;;;;;;;;;;4890675;28;20189;-75
2021/09/09 02:55:02;;;;;;;8.10;1.70;;;7.80;35.30;;;;;;4896613;28;20188;-75
2021/09/09 02:57:25;;;;;;;6.67;1.40;;;;;;;;;;4897400;28;20211;-75
2021/09/09 02:59:48;;;;;;;6.70;1.43;;;;;;;;;;4912183;28;20590;-77
2021/09/09 03:02:11;;;;;;;9.50;1.93;;;;;;;;;;4888219;28;20294;-78
2021/09/09 03:04:35;;;;;;;7.13;1.57;;;7.60;35.00;;;;;;4877815;28;20266;-76
2021/09/09 03:06:57;;;;;;;7.10;1.57;;;;;;;;;;4878830;28;20231;-76
2021/09/09 03:09:20;;;;;;;7.13;1.47;;;;;;;;;;4895360;28;20220;-78
2021/09/09 03:11:43;;;;;;;8.23;1.70;;;;;;;;;;4894522;28;20242;-76
2021/09/09 03:14:05;;;;;;;7.43;1.43;;;;;;;;;;4878931;28;20193;-89
2021/09/09 03:16:28;;;;;;;8.33;1.70;;;;;;;;;;4884652;28;20185;-91
2021/09/09 03:18:51;;;;;;;4.97;1.10;;;;;;;;;;4871201;28;20221;-90
2021/09/09 03:21:15;;;;;;;7.17;1.43;;;7.40;35.00;;;;;;4877554;28;20235;-90
2021/09/09 03:23:37;;;;;;;5.40;1.13;;;;;;;;;;4884447;28;20258;-91
2021/09/09 03:26:00;;;;;;;5.93;1.20;;;;;;;;;;4879268;28;20267;-90
2021/09/09 03:28:23;;;;;;;9.10;1.80;;;;;;;;;;4859575;28;20186;-88
2021/09/09 03:30:46;;;;;;;3.40;0.80;;;;;;;;;;4869739;28;20185;-91
2021/09/09 03:33:08;;;;;;;2.43;0.67;;;;;;;;;;4898235;28;20654;-91
2021/09/09 03:35:31;;;;;;;4.43;1.03;;;;;;;;;;4894075;28;20260;-88
2021/09/09 03:37:55;;;;;;;3.60;0.73;;;7.20;35.80;;;;;;4894875;28;20674;-90
2021/09/09 03:40:18;;;;;;;9.37;1.77;;;;;;;;;;4882447;28;20715;-76
2021/09/09 03:42:41;;;;;;;3.67;0.80;;;;;;;;;;4887768;28;20578;-92
2021/09/09 03:45:04;;;;;;;6.77;1.40;;;;;;;;;;4892813;28;20572;-85
2021/09/09 03:47:27;;;;;;;11.47;2.23;;;;;;;;;;4893401;28;20196;-85
2021/09/09 03:49:50;;;;;;;3.73;0.90;;;;;;;;;;4882595;28;20276;-89
2021/09/09 03:52:13;;;;;;;3.70;0.83;;;;;;;;;;4878102;28;20193;-89
2021/09/09 03:54:37;;;;;;;5.10;1.10;;;6.90;36.70;;;;;;4878557;28;20596;-88
2021/09/09 03:57:00;;;;;;;3.87;0.90;;;;;;;;;;4877058;28;20213;-90
2021/09/09 03:59:22;;;;;;;7.50;1.60;;;;;;;;;;4876151;28;20193;-91
2021/09/09 04:01:45;;;;;;;7.10;1.43;;;;;;;;;;4887141;28;20231;-90
2021/09/09 04:04:08;;;;;;;4.53;1.00;;;;;;;;;;4896225;28;20184;-87
2021/09/09 04:06:31;;;;;;;13.30;2.60;;;;;;;;;;4890101;28;20193;-87
2021/09/09 04:08:55;;;;;;;7.17;1.57;;;;;;;;;;4895158;28;20220;-75
2021/09/09 04:11:18;;;;;;;10.87;2.10;;;6.90;35.90;;;;;;4895095;28;20173;-75
2021/09/09 04:13:41;;;;;;;4.30;1.00;;;;;;;;;;4895369;28;20250;-75
2021/09/09 04:16:04;;;;;;;6.47;1.40;;;;;;;;;;4895591;28;20248;-76
2021/09/09 04:18:26;;;;;;;6.53;1.43;;;;;;;;;;4894303;28;20621;-76
2021/09/09 04:20:49;;;;;;;3.47;0.87;;;;;;;;;;4895260;28;20198;-75
2021/09/09 04:23:12;;;;;;;8.03;1.70;;;;;;;;;;4894381;28;20310;-77
2021/09/09 04:25:35;;;;;;;6.50;1.43;;;;;;;;;;4910377;28;20285;-75
2021/09/09 04:27:59;;;;;;;7.33;1.53;;;6.80;35.60;;;;;;4893838;28;20200;-78
2021/09/09 04:30:21;;;;;;;11.27;2.27;;;;;;;;;;4895019;28;20226;-76
2021/09/09 04:32:44;;;;;;;5.03;1.20;;;;;;;;;;4893627;28;20180;-75
2021/09/09 04:35:07;;;;;;;4.67;1.13;;;6.90;33.90;;;;;;4910922;28;20539;-76
2021/09/09 04:37:30;;;;;;;9.50;1.90;;;;;;;;;;4894641;28;20193;-76
2021/09/09 04:39:53;;;;;;;8.17;1.57;;;;;;;;;;4910162;28;20273;-75
2021/09/09 04:42:15;;;;;;;8.47;1.40;;;;;;;;;;4894953;28;20230;-80
2021/09/09 04:44:39;;;;;;;5.13;1.07;;;7.00;33.10;;;;;;4895091;28;20293;-78
2021/09/09 04:47:02;;;;;;;8.30;1.60;;;;;;;;;;4894614;28;20180;-77
2021/09/09 04:49:25;;;;;;;10.47;2.00;;;;;;;;;;4893894;28;20191;-77
2021/09/09 04:51:48;;;;;;;3.97;0.90;;;;;;;;;;4894914;28;20713;-75
2021/09/09 04:54:10;;;;;;;11.03;2.17;;;;;;;;;;4891891;28;20189;-76
2021/09/09 04:56:33;;;;;;;8.73;1.70;;;;;;;;;;4882522;28;20715;-77
2021/09/09 04:58:57;;;;;;;8.27;1.60;;;;;;;;;;4894985;28;20180;-78
2021/09/09 05:01:21;;;;;;;7.83;1.63;;;7.40;31.60;;;;;;4890206;28;20184;-76
2021/09/09 05:03:44;;;;;;;5.23;1.10;;;;;;;;;;4893731;28;20690;-75
2021/09/09 05:06:06;;;;;;;4.87;1.10;;;;;;;;;;4909166;28;20224;-77
2021/09/09 05:08:29;;;;;;;8.07;1.63;;;;;;;;;;4894124;28;20270;-83
2021/09/09 05:10:52;;;;;;;6.07;1.23;;;;;;;;;;4894100;28;20646;-79
2021/09/09 05:13:14;;;;;;;9.87;1.97;;;;;;;;;;4894570;28;20193;-77
2021/09/09 05:15:37;;;;;;;4.43;1.03;;;;;;;;;;4895043;28;20189;-75
2021/09/09 05:18:01;;;;;;;6.33;1.43;;;8.20;99.90;;;;;;4894784;28;20707;-77
2021/09/09 05:20:24;;;;;;;7.93;1.60;;;;;;;;;;4894138;28;20238;-76
2021/09/09 05:22:47;;;;;;;8.40;1.70;;;;;;;;;;4893997;28;20442;-83
2021/09/09 05:25:10;;;;;;;4.93;1.07;;;8.50;99.90;;;;;;4894682;28;20208;-75
2021/09/09 05:27:33;;;;;;;6.27;1.30;;;;;;;;;;4893337;28;20181;-76
2021/09/09 05:29:56;;;;;;;5.27;1.17;;;;;;;;;;4910921;28;20245;-75
2021/09/09 05:32:18;;;;;;;9.03;1.70;;;;;;;;;;4893724;28;20189;-79
2021/09/09 05:34:42;;;;;;;7.57;1.53;;;9.00;99.90;;;;;;4894611;28;20588;-80
2021/09/09 05:37:05;;;;;;;10.47;2.00;;;;;;;;;;4894628;28;20189;-77
2021/09/09 05:39:29;;;;;;;8.33;1.67;;;;;;;;;;4893268;28;20641;-75
2021/09/09 05:41:51;;;;;;;4.33;1.00;;;;;;;;;;4913241;28;20196;-75
2021/09/09 05:44:14;;;;;;;8.50;1.60;;;;;;;;;;4897603;28;20189;-75
2021/09/09 05:46:37;;;;;;;5.90;1.30;;;;;;;;;;4898206;28;20266;-75
2021/09/09 05:48:59;;;;;;;8.83;1.63;;;;;;;;;;4898402;28;20185;-75
2021/09/09 05:51:23;;;;;;;11.73;2.20;;;10.10;99.90;;;;;;4897750;28;20234;-77
2021/09/09 05:53:46;;;;;;;4.87;1.00;;;;;;;;;;4896256;28;20189;-75
2021/09/09 05:56:09;;;;;;;5.70;1.10;;;;;;;;;;4914125;28;20261;-77
2021/09/09 05:58:31;;;;;;;4.67;1.00;;;;;;;;;;4900759;28;20270;-73
2021/09/09 06:00:54;;;;;;;5.60;1.10;;;;;;;;;;4896040;28;20185;-79
2021/09/09 06:03:17;;;;;;;14.00;2.40;;;;;;;;;;4896184;28;20290;-76
2021/09/09 06:05:40;;;;;;;10.20;1.97;;;;;;;;;;4911620;28;20221;-77
2021/09/09 06:08:04;;;;;;;11.03;1.97;;;11.20;99.90;;;;;;4882695;28;20193;-78
2021/09/09 06:10:27;;;;;;;9.53;1.80;;;;;;;;;;4878299;28;20232;-82
2021/09/09 06:12:50;;;;;;;4.77;1.03;;;;;;;;;;4897510;28;20188;-82
2021/09/09 06:15:13;;;;;;;6.03;1.30;;;;;;;;;;4896447;28;20238;-74
2021/09/09 06:17:36;;;;;;;6.60;1.33;;;;;;;;;;4895398;28;20600;-79
2021/09/09 06:19:58;;;;;;;11.27;1.93;;;;;;;;;;4897394;28;20192;-82
2021/09/09 06:22:21;;;;;;;17.90;3.03;;;;;;;;;;4896876;28;20185;-80
2021/09/09 06:24:45;;;;;;;13.30;2.33;;;12.10;99.90;;;;;;4895517;28;20193;-78
2021/09/09 06:27:10;;;;;;;11.27;2.00;;;12.20;99.90;;;;;;4895291;28;21019;-80
2021/09/09 06:29:33;;;;;;;7.77;1.47;;;;;;;;;;4897229;28;20310;-79
2021/09/09 06:31:56;;;;;;;9.33;1.70;;;;;;;;;;4896212;28;20184;-80
2021/09/09 06:34:19;;;;;;;11.57;2.10;;;;;;;;;;4896321;28;20193;-77
2021/09/09 06:36:42;;;;;;;6.40;1.20;;;;;;;;;;4894565;28;20262;-75
2021/09/09 06:39:06;;;;;;;6.53;1.17;;;;;;;;;;4895899;28;20197;-80
2021/09/09 06:41:30;;;;;;;9.90;1.90;;;12.80;34.60;;;;;;4895183;28;20801;-81
2021/09/09 06:43:53;;;;;;;5.20;1.07;;;;;;;;;;4897320;28;20180;-78
2021/09/09 06:46:16;;;;;;;14.70;2.57;;;;;;;;;;4895425;28;20200;-79
2021/09/09 06:48:38;;;;;;;13.07;2.50;;;;;;;;;;4876084;28;20559;-81
2021/09/09 06:51:02;;;;;;;8.10;1.53;;;;;;;;;;4886513;28;20196;-81
2021/09/09 06:53:24;;;;;;;6.10;1.27;;;;;;;;;;4895306;28;20219;-82
2021/09/09 06:55:47;;;;;;;9.60;1.77;;;;;;;;;;4888486;28;20208;-86
2021/09/09 06:58:11;;;;;;;102.50;15.90;;;13.80;44.30;;;;;;4875298;28;20255;-75
2021/09/09 07:00:34;;;;;;;59.80;9.63;;;;;;;;;;4886560;28;20258;-78
2021/09/09 07:02:57;;;;;;;4.93;1.07;;;;;;;;;;4895278;28;20343;-76
2021/09/09 07:05:20;;;;;;;10.00;1.80;;;;;;;;;;4895497;28;20249;-76
2021/09/09 07:07:42;;;;;;;11.67;2.07;;;;;;;;;;4895829;28;20330;-79
2021/09/09 07:10:06;;;;;;;15.27;2.77;;;14.50;46.70;;;;;;4894849;28;20562;-80
2021/09/09 07:12:28;;;;;;;8.93;1.63;;;;;;;;;;4906803;28;20241;-86
2021/09/09 07:14:52;;;;;;;5.17;1.07;;;14.70;47.30;;;;;;4896737;28;20192;-81
2021/09/09 07:17:15;;;;;;;9.53;1.70;;;;;;;;;;4896769;28;20188;-85
2021/09/09 07:19:38;;;;;;;15.77;2.73;;;;;;;;;;4895137;28;20192;-84
2021/09/09 07:22:00;;;;;;;7.27;1.37;;;;;;;;;;4894889;28;20586;-89
2021/09/09 07:24:23;;;;;;;12.27;2.13;;;;;;;;;;4911588;28;20254;-82
2021/09/09 07:26:46;;;;;;;5.80;1.10;;;;;;;;;;4897190;28;20212;-87
2021/09/09 07:29:09;;;;;;;11.70;2.07;;;;;;;;;;4896593;28;20193;-80
2021/09/09 07:31:33;;;;;;;7.07;1.27;;;15.70;48.90;;;;;;4896322;28;20196;-85
2021/09/09 07:33:55;;;;;;;5.73;1.10;;;;;;;;;;4895274;28;20239;-85
2021/09/09 07:36:18;;;;;;;14.13;2.30;;;;;;;;;;4912415;28;20237;-79
2021/09/09 07:38:41;;;;;;;3.87;0.90;;;;;;;;;;4897275;28;20579;-87
2021/09/09 07:41:04;;;;;;;8.20;1.43;;;;;;;;;;4894988;28;20181;-84
2021/09/09 07:43:27;;;;;;;8.17;1.50;;;;;;;;;;4895461;28;20609;-84
2021/09/09 07:45:49;;;;;;;7.83;1.43;;;;;;;;;;4896285;28;20214;-82
2021/09/09 07:48:13;;;;;;;7.50;1.40;;;17.00;50.60;;;;;;4891231;28;20185;-74
2021/09/09 07:50:36;;;;;;;8.17;1.57;;;;;;;;;;4894469;28;20188;-84
2021/09/09 07:52:59;;;;;;;5.87;1.07;;;;;;;;;;4895336;28;20189;-80
2021/09/09 07:55:21;;;;;;;8.83;1.67;;;;;;;;;;4895142;28;20230;-79
2021/09/09 07:57:45;;;;;;;5.07;1.00;;;17.70;51.30;;;;;;4895751;28;20217;-82
2021/09/09 08:00:09;;;;;;;9.47;1.67;;;17.90;51.60;;;;;;4894223;28;20230;-86
2021/09/09 08:02:35;;;;;;;13.60;2.30;;;;;;;;;;4891388;28;20278;-75
2021/09/09 08:04:59;;;;;;;12.23;2.10;;;18.40;52.30;;;;;;4891485;28;20204;-80
2021/09/09 08:07:21;;;;;;;10.10;1.73;;;;;;;;;;4894542;28;20854;-83
2021/09/09 08:09:44;;;;;;;11.30;2.03;;;;;;;;;;4894051;28;20233;-77
2021/09/09 08:12:08;;;;;;;9.87;1.73;;;18.80;53.10;;;;;;4894572;28;20782;-77
2021/09/09 08:14:31;;;;;;;10.87;1.87;;;;;;;;;;4909659;28;20192;-76
2021/09/09 08:16:54;;;;;;;7.87;1.40;;;;;;;;;;4893901;28;20192;-74
2021/09/09 08:19:16;;;;;;;10.47;1.87;;;;;;;;;;4893917;28;20185;-75
2021/09/09 08:21:40;;;;;;;5.17;0.97;;;19.70;53.30;;;;;;4893625;28;20235;-74
2021/09/09 08:35:19;;;;;;;9.87;1.43;;;20.40;54.60;;;;;;4958635;27;20286;-78
2021/09/09 08:37:42;;;;;;;20.03;2.83;;;;;;;;;;4969512;27;20637;-76
2021/09/09 08:40:07;;;;;;;9.30;1.40;;;20.70;54.90;;;;;;4955735;27;20836;-74
2021/09/09 08:42:30;;;;;;;10.93;1.63;;;;;;;;;;4934555;27;20180;-76
2021/09/09 08:44:53;;;;;;;14.90;2.23;;;;;;;;;;4950603;27;20190;-75
2021/09/09 08:47:16;;;;;;;18.60;2.70;;;;;;;;;;4970279;27;20185;-75
2021/09/09 08:49:39;;;;;;;35.63;4.83;;;;;;;;;;4948967;27;20228;-76
2021/09/09 08:52:04;;;;;;;16.43;2.20;;;21.60;56.00;;;;;;4950168;28;20190;-75
2021/09/09 08:54:27;;;;;;;20.03;2.53;;;;;;;;;;4935037;27;20257;-75
2021/09/09 08:56:50;;;;;;;16.50;2.17;;;;;;;;;;4960879;27;20190;-75
2021/09/09 08:59:12;;;;;;;10.87;1.33;;;;;;;;;;4957249;27;20181;-74
2021/09/09 09:01:35;;;;;;;23.40;2.83;;;;;;;;;;4950946;27;20677;-79
2021/09/09 09:04:01;;;;;;;12.07;1.53;;;24.30;59.20;;;;;;4910733;28;20182;-86
2021/09/09 09:06:38;;;;;;;13.00;1.63;;;25.40;45.30;;;;;;4910448;28;20182;-76
2021/09/09 09:09:08;;;;;;;28.97;3.53;;;27.20;46.50;;;;;;4906434;28;20664;-76
2021/09/09 09:11:33;;;;;;;16.23;1.97;;;29.70;47.80;;;;;;4909511;28;20605;-76
2021/09/09 09:13:56;;;;;;;16.60;2.10;;;31.60;48.90;;;;;;4892437;28;20261;-74
2021/09/09 09:16:20;;;;;;;17.23;2.20;;;33.80;49.90;;;;;;4906804;28;20603;-76
2021/09/09 09:18:43;;;;;;;27.23;3.33;;;35.70;50.60;;;;;;4909299;28;20187;-75
2021/09/09 09:21:07;;;;;;;9.23;1.23;;;;;;;;;;4907484;28;20702;-81
2021/09/09 09:23:29;;;;;;;18.67;2.30;;;;;;;;;;4904843;28;20205;-79
2021/09/09 09:25:56;;;;;;;20.00;2.47;;;39.80;52.30;;;;;;4897524;28;20720;-82
2021/09/09 09:28:39;;;;;;;20.77;2.65;;;41.20;52.90;;;;;;4898806;28;20249;-77
2021/09/09 09:31:06;;;;;;;18.70;2.47;;;42.20;53.30;;;;;;4903336;28;20245;-84
2021/09/09 09:33:34;;;;;;;19.48;2.72;;;42.60;53.50;;;;;;4900669;28;20220;-82
2021/09/09 09:36:13;;;;;;;22.48;2.97;;;41.80;53.30;;;;;;4883290;28;20185;-79
2021/09/09 09:38:35;;;;;;;25.13;3.97;;;;;;;;;;4891052;28;20181;-82
2021/09/09 09:41:05;;;;;;;19.33;2.58;;;40.10;52.80;;;;;;4891809;28;20283;-77
2021/09/09 09:43:28;;;;;;;9.45;1.23;;;;;;;;;;4877348;28;20266;-76
2021/09/09 09:45:52;;;;;;;18.48;2.65;;;42.50;53.50;;;;;;4886178;28;20192;-76
2021/09/09 09:48:26;;;;;;;20.00;2.95;;;43.20;53.80;;;;;;4891779;28;20189;-82
2021/09/09 09:50:49;;;;;;;13.18;2.15;;;;;;;;;;4887532;28;20611;-79
2021/09/09 09:53:16;;;;;;;18.67;2.65;;;44.70;54.30;;;;;;4886210;28;20193;-82
2021/09/09 09:55:41;;;;;;;29.58;3.63;;;45.20;54.50;;;;;;4864859;28;20192;-82
2021/09/09 09:58:05;;;;;;;23.20;3.17;;;45.80;54.70;;;;;;4891750;28;20706;-77
2021/09/09 10:00:28;;;;;;;42.03;5.22;;;;;;;;;;4878830;28;20261;-81
2021/09/09 10:02:52;;;;;;;24.75;3.38;;;;;;;;;;4878848;28;20225;-77
2021/09/09 10:05:15;;;;;;;17.85;2.28;;;;;;;;;;4857745;28;20296;-86
2021/09/09 10:07:38;;;;;;;23.35;3.33;;;;;;;;;;4858991;28;20186;-88
2021/09/09 10:10:01;;;;;;;21.83;2.72;;;;;;;;;;4857467;28;20182;-76
2021/09/09 10:12:26;;;;;;;18.52;2.50;;;;;;;;;;4889547;28;20205;-80
2021/09/09 10:14:51;;;;;;;14.40;1.95;;;44.00;54.30;;;;;;4876238;28;20212;-81
2021/09/09 10:17:18;;;;;;;25.55;3.20;;;44.00;54.30;;;;;;4861965;28;20198;-76
2021/09/09 10:19:40;;;;;;;47.45;6.05;;;;;;;;;;4872149;28;20239;-91
2021/09/09 10:22:06;;;;;;;14.65;1.90;;;45.30;54.60;;;;;;4858695;28;20182;-83
2021/09/09 10:24:31;;;;;;;11.55;1.60;;;46.00;54.90;;;;;;4858741;28;20221;-85
2021/09/09 10:27:24;;;;;;;13.38;1.80;;;46.70;55.10;;;;;;4867516;28;20189;-88
2021/09/09 10:29:53;;;;;;;28.20;3.70;;;47.20;55.40;;;;;;4858199;28;20201;-82
2021/09/09 10:32:51;;;;;;;19.67;2.63;;;46.30;55.10;;;;;;4875581;28;20659;-85
2021/09/09 10:35:38;;;;;;;28.23;3.78;;;46.80;55.20;;;;;;4874012;28;20706;-85
2021/09/09 10:38:26;;;;;;;10.23;1.58;;;47.50;55.40;;;;;;4857434;28;20242;-91
2021/09/09 10:40:51;;;;;;;26.90;3.55;;;48.30;55.60;;;;;;4873705;28;20185;-84
2021/09/09 10:43:15;;;;;;;19.63;2.60;;;48.70;55.90;;;;;;4876124;28;20193;-82
2021/09/09 10:45:40;;;;;;;17.80;3.63;;;48.50;55.80;;;;;;4876401;28;20643;-88
2021/09/09 10:48:03;;;;;;;18.58;2.58;;;;;;;;;;4875791;28;20243;-86
2021/09/09 10:50:26;;;;;;;11.18;1.58;;;;;;;;;;4875228;28;20227;-89
2021/09/09 10:52:59;;;;;;;12.75;1.77;;;49.30;56.10;;;;;;4876843;28;20181;-89
2021/09/09 10:55:26;;;;;;;14.88;2.10;;;49.40;56.10;;;;;;4848761;28;20237;-91
2021/09/09 10:57:50;;;;;;;10.60;1.42;;;50.40;56.40;;;;;;4857208;28;20193;-86
2021/09/09 11:00:16;;;;;;;9.75;1.33;;;50.60;56.50;;;;;;4858481;28;20194;-91
2021/09/09 11:02:47;;;;;;;27.02;3.55;;;50.30;56.30;;;;;;4857990;28;20627;-90
2021/09/09 11:05:10;;;;;;;16.67;2.17;;;;;;;;;;4869640;28;20197;-87
2021/09/09 11:07:33;;;;;;;8.75;1.23;;;;;;;;;;4858838;28;20190;-88
2021/09/09 11:09:59;;;;;;;12.70;1.77;;;49.70;56.20;;;;;;4867356;28;20186;-83
2021/09/09 11:12:22;;;;;;;13.85;1.85;;;;;;;;;;4858055;28;20252;-85
2021/09/09 11:14:46;;;;;;;17.45;2.28;;;50.60;56.50;;;;;;4887038;28;20839;-87
2021/09/09 11:17:16;;;;;;;18.55;2.35;;;50.60;56.60;;;;;;4877397;28;20189;-87
2021/09/09 11:19:39;;;;;;;49.38;6.43;;;;;;;;;;4865874;28;20202;-93
2021/09/09 11:22:04;;;;;;;22.58;3.03;;;50.10;56.30;;;;;;4877797;28;20205;-94
2021/09/09 11:24:27;;;;;;;16.63;2.42;;;;;;;;;;4859798;28;20667;-87
2021/09/09 11:26:51;;;;;;;7.32;1.10;;;49.30;56.10;;;;;;4863348;28;20243;-90
2021/09/09 11:29:15;;;;;;;18.27;2.72;;;;;;;;;;4858113;28;20236;-80
2021/09/09 11:31:47;;;;;;;15.43;2.38;;;51.10;56.60;;;;;;4863882;28;20185;-89
2021/09/09 11:34:10;;;;;;;27.55;4.30;;;;;;;;;;4871967;28;20287;-89
2021/09/09 11:36:33;;;;;;;17.00;2.60;;;52.30;57.10;;;;;;4867713;28;20209;-78
2021/09/09 11:38:58;;;;;;;14.13;2.80;;;52.40;57.20;;;;;;4855741;28;20224;-85
2021/09/09 11:41:23;;;;;;;13.13;2.60;;;53.10;57.40;;;;;;4858993;28;20198;-86
2021/09/09 11:43:51;;;;;;;16.02;3.72;;;52.20;57.20;;;;;;4857810;28;20255;-87
2021/09/09 11:46:13;;;;;;;23.33;14.82;;;;;;;;;;4856470;28;20225;-84
2021/09/09 11:48:37;;;;;;;238.73;220.30;;;51.80;57.00;;;;;;4859744;28;20186;-84
2021/09/09 11:51:00;;;;;;;458.33;415.00;;;;;;;;;;4861519;28;20600;-80
2021/09/09 11:53:23;;;;;;;459.63;416.25;;;52.60;57.30;;;;;;4862187;28;20256;-87
2021/09/09 11:55:46;;;;;;;477.08;425.83;;;;;;;;;;4867243;28;20197;-80
2021/09/09 11:58:09;;;;;;;458.98;409.60;;;;;;;;;;4867968;28;20700;-84
2021/09/09 12:00:32;;;;;;;483.92;419.65;;;;;;;;;;4867879;28;20189;-78
2021/09/09 12:02:55;;;;;;;465.05;417.90;;;;;;;;;;4871653;28;20229;-90
2021/09/09 12:05:19;;;;;;;483.42;433.98;;;54.90;50.50;;;;;;4865491;28;20197;-78
2021/09/09 12:07:42;;;;;;;467.90;418.15;;;;;;;;;;4869180;28;20181;-84
2021/09/09 12:10:06;;;;;;;195.02;163.05;;;55.80;50.80;;;;;;4863877;28;20386;-82
2021/09/09 12:12:32;;;;;;;11.98;1.60;;;55.80;50.90;;;;;;4860358;28;20243;-84
2021/09/09 12:14:59;;;;;;;9.70;1.30;;;54.30;50.40;;;;;;4866371;28;20185;-89
2021/09/09 12:17:22;;;;;;;22.13;2.80;;;;;;;;;;4842337;28;20190;-82
2021/09/09 12:19:55;;;;;;;18.80;2.50;;;55.90;50.90;;;;;;4868419;28;20197;-82
2021/09/09 12:22:20;;;;;;;14.77;1.98;;;55.70;50.80;;;;;;4859933;28;20186;-80
2021/09/09 12:24:42;;;;;;;19.55;2.58;;;;;;;;;;4850302;28;20214;-82
2021/09/09 12:27:07;;;;;;;6.28;0.93;;;;;;;;;;4846142;28;20206;-77
2021/09/09 12:29:37;;;;;;;35.53;4.43;;;55.00;50.60;;;;;;4854774;28;20186;-78
2021/09/09 12:32:00;;;;;;;12.43;1.70;;;;;;;;;;4859111;28;20181;-86
2021/09/09 12:34:23;;;;;;;21.40;2.85;;;;;;;;;;4854339;28;20800;-86
2021/09/09 12:36:49;;;;;;;16.02;2.10;;;54.50;50.50;;;;;;4866081;28;20185;-84
2021/09/09 12:39:14;;;;;;;13.60;1.90;;;55.40;50.70;;;;;;4858206;28;20717;-78
2021/09/09 12:41:37;;;;;;;20.02;2.63;;;;;;;;;;4861225;28;20667;-76
2021/09/09 12:44:13;;;;;;;13.30;1.85;;;54.80;50.60;;;;;;4857503;28;20201;-79
2021/09/09 12:46:38;;;;;;;17.55;2.30;;;55.50;50.80;;;;;;4860820;28;20759;-88
2021/09/09 12:49:03;;;;;;;14.40;1.98;;;56.30;51.10;;;;;;4871127;28;20657;-82
2021/09/09 12:51:26;;;;;;;9.70;1.40;;;;;;;;;;4846668;28;20586;-82
2021/09/09 12:53:49;;;;;;;13.13;1.83;;;;;;;;;;4865452;28;20236;-77
2021/09/09 12:56:13;;;;;;;19.73;2.67;;;55.40;50.70;;;;;;4870058;28;20197;-81
2021/09/09 12:58:38;;;;;;;13.63;1.92;;;;;;;;;;4863415;28;20216;-82
2021/09/09 13:01:01;;;;;;;9.55;1.45;;;;;;;;;;4860603;28;20198;-83
2021/09/09 13:03:23;;;;;;;14.23;1.98;;;;;;;;;;4866500;28;20209;-76
2021/09/09 13:05:46;;;;;;;9.63;1.45;;;;;;;;;;4863686;28;20257;-78
2021/09/09 13:08:09;;;;;;;13.55;2.03;;;;;;;;;;4863529;28;20244;-79
2021/09/09 13:10:32;;;;;;;28.55;3.95;;;;;;;;;;4864237;28;20190;-80
2021/09/09 13:12:56;;;;;;;6.05;1.02;;;52.00;57.10;;;;;;4868456;28;20265;-76
2021/09/09 13:15:19;;;;;;;7.85;1.30;;;;;;;;;;4861984;28;20193;-76
2021/09/09 13:17:42;;;;;;;14.98;2.25;;;;;;;;;;4871882;28;20189;-75
2021/09/09 13:20:06;;;;;;;10.05;1.50;;;48.50;56.00;;;;;;4868877;28;20194;-77
2021/09/09 13:22:29;;;;;;;9.18;1.48;;;;;;;;;;4867613;28;20186;-77
2021/09/09 13:24:55;;;;;;;6.40;1.08;;;;;;;;;;4863179;28;20198;-75
2021/09/09 13:27:18;;;;;;;6.47;1.05;;;;;;;;;;4879710;28;20251;-75
2021/09/09 13:29:42;;;;;;;25.30;3.95;;;40.60;53.40;;;;;;4874322;28;20654;-77
2021/09/09 13:32:05;;;;;;;6.78;1.13;;;;;;;;;;4871427;28;20599;-77
2021/09/09 13:34:28;;;;;;;8.65;1.45;;;;;;;;;;4867305;28;20221;-75
2021/09/09 13:36:51;;;;;;;8.68;1.42;;;;;;;;;;4864183;28;20190;-77
2021/09/09 13:39:14;;;;;;;12.52;2.13;;;;;;;;;;4880578;28;20209;-76
2021/09/09 13:41:36;;;;;;;12.05;1.98;;;;;;;;;;4867833;28;20656;-76
2021/09/09 13:44:02;;;;;;;7.78;1.35;;;32.30;50.40;;;;;;4862598;28;20186;-74
2021/09/09 13:46:26;;;;;;;7.38;1.25;;;31.70;50.10;;;;;;4866328;28;20563;-79
2021/09/09 13:48:48;;;;;;;8.40;1.45;;;;;;;;;;4858606;28;20247;-75